Data for 01/11/2006

Time Sea-Level Adjusted Pressure Absolute Pressure Temperature Relative Humidity Dew Point   
(mb) (inHg) (mb) (inHg) (C) (F) (%) (C) (F)
00:05 1006 29.71 835 24.66 4.9 40.9 57 -2.8 26.9
00:10 1006 29.71 835 24.66 4.8 40.6 58 -2.7 27.1
00:15 1006 29.71 835 24.66 4.8 40.6 57 -3.1 26.4
00:20 1006 29.71 835 24.66 5 40.9 56 -3.1 26.5
00:25 1006 29.71 835 24.66 5 41.1 56 -3 26.6
00:30 1006 29.71 835 24.66 5.1 41.2 56 -2.9 26.7
00:35 1006 29.71 835 24.66 5.3 41.6 55 -3 26.7
00:40 1005 29.68 835 24.66 5 41 58 -2.5 27.5
00:45 1006 29.71 835 24.66 4.6 40.2 58 -2.9 26.8
00:50 1005 29.68 835 24.66 4.6 40.3 58 -2.9 26.7
00:55 1005 29.68 834 24.63 5 40.9 54 -3.5 25.7
01:00 1005 29.68 834 24.63 5.7 42.2 53 -3.1 26.5
01:05 1005 29.68 834 24.63 6.2 43.1 50 -3.4 25.8
01:10 1005 29.68 834 24.63 6.4 43.6 50 -3.1 26.4
01:15 1005 29.68 834 24.63 6.6 43.9 50 -3 26.7
01:20 1005 29.68 834 24.63 6.8 44.2 48 -3.4 25.9
01:25 1005 29.68 834 24.63 6.9 44.3 48 -3.5 25.8
01:30 1005 29.68 834 24.63 6.8 44.3 50 -2.9 26.8
01:35 1005 29.68 834 24.63 6.4 43.5 51 -2.9 26.7
01:40 1005 29.68 834 24.63 6.4 43.6 49 -3.4 25.8
01:45 1005 29.68 834 24.63 6.7 44.1 50 -3 26.7
01:50 1005 29.68 835 24.66 6.4 43.4 51 -3 26.6
01:55 1006 29.71 835 24.66 6.5 43.7 52 -2.7 27.2
02:00 1006 29.71 835 24.66 6.2 43.1 54 -2.4 27.6
02:05 1006 29.71 835 24.66 5.9 42.6 54 -2.6 27.3
02:10 1006 29.71 835 24.66 5.8 42.4 55 -2.7 27.2
02:15 1006 29.71 835 24.66 5.8 42.4 54 -2.9 26.8
02:20 1006 29.71 835 24.66 5.9 42.6 54 -2.8 26.9
02:25 1006 29.71 835 24.66 5.9 42.7 54 -2.7 27.2
02:30 1006 29.71 835 24.66 5.7 42.3 55 -2.7 27.2
02:35 1006 29.71 835 24.66 5.5 42 54 -2.9 26.8
02:40 1006 29.71 835 24.66 5.4 41.7 58 -2.3 27.9
02:45 1006 29.71 835 24.66 5.4 41.6 57 -2.4 27.6
02:50 1006 29.71 835 24.66 5.5 41.9 57 -2.3 27.8
02:55 1006 29.71 835 24.66 5.5 41.8 56 -2.6 27.2
03:00 1006 29.71 835 24.66 5.5 41.9 58 -2.1 28.2
03:05 1006 29.71 835 24.66 5.5 41.9 56 -2.5 27.5
03:10 1005 29.68 835 24.66 5.8 42.4 53 -3.1 26.4
03:15 1005 29.68 834 24.63 6.4 43.6 51 -2.9 26.8
03:20 1005 29.68 834 24.63 6.4 43.5 53 -2.4 27.6
03:25 1005 29.68 834 24.63 6.2 43.2 53 -2.6 27.3
03:30 1005 29.68 834 24.63 6.1 43.1 52 -2.9 26.7
03:35 1005 29.68 834 24.63 6.2 43.2 53 -2.5 27.4
03:40 1005 29.68 834 24.63 6.2 43.1 53 -2.7 27.2
03:45 1005 29.68 834 24.63 6.3 43.4 54 -2.2 28
03:50 1004 29.65 834 24.63 6 42.7 55 -2.4 27.7
03:55 1004 29.65 833 24.6 6.1 43 54 -2.5 27.6
04:00 1004 29.65 833 24.6 6.3 43.3 53 -2.5 27.5
04:05 1004 29.65 833 24.6 6.2 43.1 56 -2 28.4
04:10 1004 29.65 833 24.6 6 42.8 55 -2.3 27.8
04:15 1003 29.62 833 24.6 6.1 42.9 55 -2.4 27.7
04:20 1003 29.62 832 24.57 6.5 43.6 52 -2.6 27.4
04:25 1003 29.62 832 24.57 6.5 43.8 53 -2.4 27.6
04:30 1003 29.62 832 24.57 6.7 44.1 52 -2.3 27.8
04:35 1003 29.62 832 24.57 6.6 44 52 -2.5 27.5
04:40 1003 29.62 832 24.57 7 44.6 48 -3.1 26.4
04:45 1003 29.62 832 24.57 7.3 45.1 51 -2.3 27.9
04:50 1003 29.62 832 24.57 7 44.6 50 -2.8 27
04:55 1003 29.62 832 24.57 6.9 44.4 49 -3.1 26.4
05:00 1003 29.62 832 24.57 6.8 44.3 50 -2.7 27.1
05:05 1002 29.59 832 24.57 7 44.6 51 -2.4 27.7
05:10 1002 29.59 832 24.57 6.9 44.5 50 -2.8 27
05:15 1002 29.59 832 24.57 6.9 44.4 50 -2.7 27.2
05:20 1002 29.59 832 24.57 6.9 44.3 49 -3.1 26.5
05:25 1003 29.62 832 24.57 6.6 44 52 -2.4 27.7
05:30 1003 29.62 832 24.57 6.5 43.8 50 -3.1 26.5
05:35 1003 29.62 832 24.57 6.9 44.4 51 -2.6 27.3
05:40 1003 29.62 832 24.57 6.8 44.2 53 -2.2 28
05:45 1002 29.59 832 24.57 6.5 43.7 52 -2.5 27.5
05:50 1002 29.59 832 24.57 6.6 43.8 50 -3.1 26.4
05:55 1002 29.59 832 24.57 6.7 44.1 51 -2.7 27.1
06:00 1002 29.59 832 24.57 6.5 43.8 53 -2.4 27.6
06:05 1002 29.59 831 24.54 6.8 44.2 51 -2.6 27.3
06:10 1002 29.59 831 24.54 7.3 45.1 47 -3.3 26.1
06:15 1002 29.59 831 24.54 7.3 45.1 48 -3.1 26.4
06:20 1002 29.59 832 24.57 7.3 45.1 49 -2.8 27
06:25 1002 29.59 832 24.57 6.9 44.5 50 -2.9 26.8
06:30 1002 29.59 831 24.54 6.7 44 52 -2.5 27.5
06:35 1002 29.59 832 24.57 6.6 43.9 51 -2.8 27
06:40 1002 29.59 832 24.57 6.6 43.9 50 -3.1 26.5
06:45 1002 29.59 831 24.54 6.9 44.4 49 -3 26.6
06:50 1002 29.59 831 24.54 6.9 44.4 50 -2.9 26.8
06:55 1002 29.59 831 24.54 7 44.6 49 -2.9 26.9
07:00 1002 29.59 832 24.57 6.9 44.4 48 -3.2 26.2
07:05 1002 29.59 831 24.54 7.1 44.7 49 -2.9 26.8
07:10 1002 29.59 832 24.57 6.9 44.4 50 -2.8 27
07:15 1002 29.59 831 24.54 7 44.5 47 -3.6 25.6
07:20 1002 29.59 832 24.57 7.3 45.1 47 -3.3 26
07:25 1002 29.59 832 24.57 7.3 45.1 47 -3.4 25.9
07:30 1002 29.59 832 24.57 7.2 45 48 -3 26.6
07:35 1002 29.59 831 24.54 7.2 44.9 47 -3.3 26
07:40 1002 29.59 831 24.54 7.4 45.2 47 -3.1 26.3
07:45 1002 29.59 831 24.54 7.7 45.9 45 -3.6 25.6
07:50 1002 29.59 831 24.54 7.8 46 46 -3 26.6
07:55 1002 29.59 832 24.57 7.8 46 46 -3.2 26.3
08:00 1002 29.59 832 24.57 7.6 45.6 47 -3 26.5
08:05 1003 29.62 832 24.57 7.5 45.4 46 -3.3 26
08:10 1002 29.59 832 24.57 7.6 45.7 46 -3.1 26.4
08:15 1002 29.59 832 24.57 7.6 45.6 47 -3 26.6
08:20 1002 29.59 832 24.57 7.4 45.4 48 -2.9 26.7
08:25 1003 29.62 832 24.57 7.4 45.4 48 -2.9 26.8
08:30 1003 29.62 833 24.6 6.9 44.5 58 -0.7 30.7
08:35 1003 29.62 833 24.6 4.8 40.6 71 -0.1 31.8
08:40 1003 29.62 833 24.6 3.3 38 80 0.2 32.4
08:45 1004 29.65 833 24.6 2.2 36 87 0.3 32.6
08:50 1004 29.65 833 24.6 1.5 34.8 91 0.3 32.5
08:55 1004 29.65 833 24.6 1.2 34.2 93 0.3 32.5
09:00 1004 29.65 834 24.63 1.2 34.1 94 0.3 32.6
09:05 1005 29.68 834 24.63 1.1 34 94 0.3 32.5
09:10 1005 29.68 834 24.63 1 33.7 95 0.3 32.5
09:15 1005 29.68 835 24.66 0.7 33.3 97 0.2 32.4
09:20 1006 29.71 835 24.66 0.5 32.9 98 0.2 32.3
09:25 1006 29.71 835 24.66 0.5 33 98 0.2 32.4
09:30 1006 29.71 835 24.66 0.5 32.8 98 0.2 32.4
09:35 1006 29.71 835 24.66 0.4 32.7 98 0.2 32.3
09:40 1006 29.71 835 24.66 0.4 32.7 99 0.2 32.3
09:45 1006 29.71 835 24.66 0.4 32.7 99 0.2 32.3
09:50 1006 29.71 835 24.66 0.4 32.7 99 0.2 32.4
09:55 1006 29.71 835 24.66 0.3 32.6 99 0.1 32.2
10:00 1006 29.71 835 24.66 0.3 32.6 99 0.1 32.3
10:05 1006 29.71 836 24.69 0.3 32.6 99 0.2 32.4
10:10 1006 29.71 836 24.69 0.4 32.7 99 0.2 32.4
10:15 1006 29.71 836 24.69 0.5 32.8 99 0.3 32.6
10:20 1006 29.71 836 24.69 0.6 33.1 99 0.4 32.8
10:25 1006 29.71 835 24.66 0.8 33.4 98 0.5 32.9
10:30 1006 29.71 835 24.66 1 33.9 96 0.4 32.8
10:35 1006 29.71 835 24.66 1.3 34.3 91 -0 32
10:40 1006 29.71 835 24.66 1.5 34.6 90 -0 32
10:45 1006 29.71 835 24.66 1.6 34.8 90 0 32.1
10:50 1006 29.71 835 24.66 1.4 34.6 89 -0.2 31.7
10:55 1006 29.71 835 24.66 1.5 34.6 89 -0.1 31.8
11:00 1006 29.71 835 24.66 1.4 34.5 90 -0.1 31.8
11:05 1006 29.71 835 24.66 1.4 34.5 89 -0.2 31.6
11:10 1006 29.71 835 24.66 1.5 34.7 89 -0.2 31.7
11:15 1006 29.71 835 24.66 1.7 35.1 86 -0.4 31.3
11:20 1006 29.71 835 24.66 1.8 35.3 86 -0.3 31.4
11:25 1006 29.71 835 24.66 2.1 35.8 84 -0.4 31.3
11:30 1006 29.71 835 24.66 2.4 36.2 81 -0.6 31
11:35 1006 29.71 835 24.66 2.6 36.6 81 -0.4 31.3
11:40 1006 29.71 835 24.66 2.6 36.6 80 -0.6 30.9
11:45 1006 29.71 835 24.66 2.7 36.9 78 -0.8 30.6
11:50 1006 29.71 835 24.66 2.8 37.1 76 -1 30.3
11:55 1006 29.71 836 24.69 2.8 37 75 -1.3 29.7
12:00 1006 29.71 836 24.69 2.9 37.2 75 -1.2 29.9
12:05 1006 29.71 836 24.69 2.8 37 76 -1 30.1
12:10 1007 29.74 836 24.69 3 37.4 74 -1.1 30
12:15 1007 29.74 836 24.69 3.3 37.9 76 -0.5 31
12:20 1007 29.74 836 24.69 3.5 38.3 77 -0.2 31.6
12:25 1007 29.74 836 24.69 3.6 38.4 74 -0.7 30.7
12:30 1007 29.74 836 24.69 3.7 38.7 69 -1.4 29.5
12:35 1007 29.74 836 24.69 3.8 38.9 69 -1.3 29.7
12:40 1006 29.71 836 24.69 3.9 39 68 -1.5 29.3
12:45 1006 29.71 836 24.69 3.8 38.9 64 -2.4 27.7
12:50 1006 29.71 836 24.69 3.8 38.8 63 -2.6 27.3
12:55 1006 29.71 836 24.69 4 39.2 61 -2.8 26.9
13:00 1006 29.71 836 24.69 4.2 39.5 61 -2.6 27.3
13:05 1006 29.71 836 24.69 4.1 39.4 60 -2.9 26.8
13:10 1006 29.71 836 24.69 4 39.3 61 -2.9 26.9
13:15 1006 29.71 835 24.66 4 39.1 63 -2.3 27.8
13:20 1006 29.71 835 24.66 4 39.2 63 -2.5 27.5
13:25 1006 29.71 835 24.66 3.9 39 60 -3.1 26.4
13:30 1006 29.71 835 24.66 3.9 39 59 -3.5 25.8
13:35 1006 29.71 835 24.66 4 39.1 59 -3.3 26.1
13:40 1006 29.71 835 24.66 3.7 38.6 61 -3.2 26.2
13:45 1006 29.71 835 24.66 3.6 38.4 60 -3.5 25.8
13:50 1006 29.71 835 24.66 3.8 38.9 60 -3.4 26
13:55 1006 29.71 835 24.66 3.3 38 61 -3.5 25.6
14:00 1006 29.71 835 24.66 3 37.4 61 -3.9 25.1
14:05 1006 29.71 835 24.66 2.8 37 61 -4.1 24.7
14:10 1006 29.71 835 24.66 2.8 37 59 -4.4 24.1
14:15 1006 29.71 835 24.66 3 37.4 57 -4.7 23.6
14:20 1006 29.71 835 24.66 3.4 38.1 55 -4.7 23.5
14:25 1006 29.71 835 24.66 3.4 38.2 55 -4.7 23.6
14:30 1006 29.71 836 24.69 3.5 38.3 54 -5.1 22.9
14:35 1006 29.71 836 24.69 3.3 38 52 -5.5 22.1
14:40 1006 29.71 836 24.69 3.4 38.2 50 -6 21.2
14:45 1006 29.71 836 24.69 3.4 38.1 51 -5.8 21.6
14:50 1006 29.71 836 24.69 3.6 38.5 51 -5.6 22
14:55 1006 29.71 836 24.69 3.6 38.5 50 -5.8 21.6
15:00 1006 29.71 836 24.69 3.6 38.5 51 -5.6 21.9
15:05 1006 29.71 836 24.69 3.4 38.1 50 -6 21.2
15:10 1006 29.71 836 24.69 3.4 38.2 50 -6.1 21
15:15 1006 29.71 836 24.69 3.5 38.4 49 -6.2 20.8
15:20 1006 29.71 835 24.66 3.6 38.5 48 -6.4 20.6
15:25 1006 29.71 835 24.66 3.5 38.3 47 -6.8 19.7
15:30 1006 29.71 836 24.69 3.5 38.4 45 -7.2 19.1
15:35 1006 29.71 836 24.69 3.2 37.8 44 -7.9 17.8
15:40 1006 29.71 836 24.69 3.2 37.8 46 -7.4 18.7
15:45 1006 29.71 836 24.69 3 37.4 46 -7.6 18.3
15:50 1007 29.74 836 24.69 2.9 37.3 45 -8 17.6
15:55 1007 29.74 836 24.69 2.8 37.1 46 -7.5 18.4
16:00 1007 29.74 836 24.69 2.9 37.3 46 -7.7 18.1
16:05 1007 29.74 836 24.69 3.1 37.6 43 -8.4 16.8
16:10 1007 29.74 836 24.69 3.3 38 42 -8.4 16.9
16:15 1007 29.74 836 24.69 3.1 37.6 44 -7.9 17.7
16:20 1007 29.74 836 24.69 3 37.4 45 -7.9 17.8
16:25 1007 29.74 836 24.69 2.7 36.9 46 -7.7 18.2
16:30 1007 29.74 836 24.69 2.5 36.5 47 -7.7 18.1
16:35 1007 29.74 836 24.69 2.2 35.9 50 -7.3 18.9
16:40 1007 29.74 836 24.69 1.7 35 51 -7.5 18.6
16:45 1007 29.74 836 24.69 1.5 34.7 50 -7.7 18.1
16:50 1007 29.74 836 24.69 1.4 34.6 51 -7.6 18.4
16:55 1007 29.74 836 24.69 1.2 34.2 52 -7.5 18.5
17:00 1007 29.74 836 24.69 1.2 34.2 52 -7.7 18.2
17:05 1007 29.74 836 24.69 1.3 34.4 51 -7.7 18.2
17:10 1007 29.74 836 24.69 1.3 34.4 52 -7.4 18.7
17:15 1007 29.74 836 24.69 1.5 34.6 52 -7.4 18.8
17:20 1007 29.74 836 24.69 1.4 34.6 54 -7 19.4
17:25 1007 29.74 836 24.69 1.2 34.2 54 -7.1 19.3
17:30 1007 29.74 836 24.69 1.1 34.1 54 -7 19.3
17:35 1007 29.74 836 24.69 1.3 34.3 54 -7.1 19.1
17:40 1007 29.74 836 24.69 1.4 34.5 53 -7.3 18.9
17:45 1007 29.74 837 24.72 1.6 34.8 53 -7 19.3
17:50 1007 29.74 837 24.72 1.7 35.1 52 -7.2 19
17:55 1008 29.77 837 24.72 1.8 35.2 52 -7.2 19.1
18:00 1008 29.77 837 24.72 1.8 35.2 51 -7.3 18.8
18:05 1008 29.77 837 24.72 1.8 35.2 54 -6.5 20.2
18:10 1008 29.77 837 24.72 1.3 34.3 58 -6.2 20.9
18:15 1008 29.77 837 24.72 1 33.8 68 -4.2 24.4
18:20 1008 29.77 837 24.72 0.7 33.3 72 -3.7 25.4
18:25 1008 29.77 837 24.72 0.7 33.3 73 -3.6 25.5
18:30 1008 29.77 837 24.72 0.8 33.4 73 -3.5 25.7
18:35 1008 29.77 837 24.72 0.8 33.5 73 -3.6 25.6
18:40 1008 29.77 837 24.72 0.8 33.4 73 -3.5 25.7
18:45 1008 29.77 837 24.72 0.7 33.2 72 -3.8 25.2
18:50 1008 29.77 837 24.72 0.7 33.3 70 -4.1 24.5
18:55 1008 29.77 837 24.72 0.9 33.6 69 -4.2 24.4
19:00 1008 29.77 837 24.72 0.9 33.6 69 -4.2 24.5
19:05 1008 29.77 837 24.72 0.9 33.5 69 -4.3 24.3
19:10 1008 29.77 837 24.72 0.8 33.4 67 -4.7 23.5
19:15 1008 29.77 837 24.72 0.9 33.5 62 -5.7 21.8
19:20 1008 29.77 837 24.72 0.9 33.7 60 -6 21.1
19:25 1008 29.77 837 24.72 0.9 33.6 61 -5.7 21.7
19:30 1008 29.77 838 24.75 0.7 33.2 61 -6 21.1
19:35 1008 29.77 838 24.75 0.4 32.7 65 -5.4 22.2
19:40 1008 29.77 838 24.75 0.1 32.2 64 -5.9 21.3
19:45 1008 29.77 838 24.75 0.3 32.6 63 -6 21.2
19:50 1009 29.8 838 24.75 0.3 32.6 63 -6 21.2
19:55 1009 29.8 838 24.75 0.2 32.4 63 -6 21.2
20:00 1009 29.8 838 24.75 0.2 32.4 64 -5.8 21.6
20:05 1009 29.8 838 24.75 0.5 32.9 61 -6.2 20.8
20:10 1009 29.8 838 24.75 0.7 33.3 55 -7.3 18.9
20:15 1009 29.8 838 24.75 0.9 33.5 55 -7.1 19.2
20:20 1009 29.8 838 24.75 0.8 33.5 55 -7.3 18.8
20:25 1009 29.8 838 24.75 0.8 33.4 55 -7.2 19
20:30 1009 29.8 838 24.75 0.7 33.2 55 -7.3 18.9
20:35 1009 29.8 838 24.75 0.6 33.1 55 -7.5 18.5
20:40 1009 29.8 838 24.75 0.7 33.2 53 -7.8 18
20:45 1009 29.8 838 24.75 0.7 33.3 53 -7.9 17.8
20:50 1009 29.8 838 24.75 0.7 33.2 53 -8 17.7
20:55 1009 29.8 838 24.75 0.5 32.9 55 -7.6 18.4
21:00 1009 29.8 838 24.75 0.3 32.6 54 -7.9 17.8
21:05 1009 29.8 838 24.75 0.1 32.2 55 -7.9 17.7
21:10 1009 29.8 838 24.75 -0.1 31.8 55 -8.2 17.2
21:15 1009 29.8 838 24.75 -0.2 31.7 54 -8.4 16.9
21:20 1009 29.8 838 24.75 -0.3 31.5 55 -8.2 17.3
21:25 1009 29.8 838 24.75 -0.6 31 55 -8.4 16.9
21:30 1009 29.8 838 24.75 -0.7 30.7 55 -8.7 16.4
21:35 1009 29.8 838 24.75 -0.9 30.5 56 -8.5 16.7
21:40 1009 29.8 838 24.75 -1.1 30 56 -8.7 16.3
21:45 1009 29.8 838 24.75 -1.2 29.9 56 -8.8 16.2
21:50 1009 29.8 838 24.75 -1 30.2 55 -9 15.8
21:55 1009 29.8 838 24.75 -1 30.3 56 -8.8 16.2
22:00 1009 29.8 838 24.75 -1 30.1 56 -8.7 16.4
22:05 1009 29.8 838 24.75 -1 30.3 55 -8.9 16.1
22:10 1009 29.8 838 24.75 -0.8 30.5 54 -8.9 16
22:15 1009 29.8 838 24.75 -0.8 30.5 56 -8.5 16.7
22:20 1009 29.8 838 24.75 -1.1 30 56 -8.7 16.3
22:25 1009 29.8 839 24.78 -1.1 30.1 56 -8.7 16.4
22:30 1009 29.8 839 24.78 -1 30.2 55 -8.9 16
22:35 1010 29.83 839 24.78 -1 30.2 56 -8.6 16.5
22:40 1010 29.83 839 24.78 -1.1 30 56 -8.7 16.3
22:45 1010 29.83 839 24.78 -1.4 29.5 56 -8.9 15.9
22:50 1010 29.83 839 24.78 -1.3 29.7 55 -9.1 15.5
22:55 1010 29.83 839 24.78 -1.1 29.9 55 -9.1 15.6
23:00 1010 29.83 839 24.78 -1 30.2 54 -9.3 15.3
23:05 1010 29.83 839 24.78 -1 30.2 54 -9.1 15.6
23:10 1010 29.83 839 24.78 -0.8 30.5 53 -9.2 15.4
23:15 1010 29.83 839 24.78 -0.6 30.9 53 -9 15.8
23:20 1010 29.83 839 24.78 -0.7 30.8 54 -8.8 16.2
23:25 1010 29.83 839 24.78 -0.7 30.7 54 -8.9 15.9
23:30 1010 29.83 839 24.78 -0.6 31 54 -8.7 16.3
23:35 1010 29.83 839 24.78 -0.5 31.1 56 -8.3 17.1
23:40 1010 29.83 839 24.78 -0.7 30.8 58 -8 17.6
23:45 1010 29.83 839 24.78 -0.9 30.4 59 -8 17.6
23:50 1010 29.83 839 24.78 -1 30.2 59 -7.9 17.7
23:55 1010 29.83 839 24.78 -1.1 30.1 58 -8.3 17.1
24:00 1010 29.83 839 24.78 -1.2 29.9 57 -8.6 16.5